Thursday, November 23, 2017, 7:26 AM GMT
Back to Local

CYOW, Ottawa Int'L. Ont.

Location: , , Canada Lat: 45.317
Local Time: 7:26 AM GMT ( 7:26 GMT) Lon: -75.667
Time Zone: GMT Elev: 380 ft

Show me the last for .
Show Decoded

2017-11-23 07:00 METAR CYOW 230700Z 30004KT 15SM SKC M08/M11 A3014 RMK SLP214 =
2017-11-23 06:00 METAR CYOW 230600Z 32006KT 15SM SKC M08/M11 A3014 RMK SLP214 =
2017-11-23 05:00 METAR CYOW 230500Z 29006KT 15SM SKC M07/M11 A3016 RMK SLP222 =
2017-11-23 04:00 METAR CYOW 230400Z 30007KT 15SM SKC M07/M11 A3016 RMK SLP222 =
2017-11-23 03:00 METAR CYOW 230300Z 31008KT 15SM FEW018 M07/M11 A3015 RMK SC1 SC TR SLP219 =
2017-11-23 02:00 METAR CYOW 230200Z 31008KT 15SM FEW030 M06/M12 A3015 RMK SC1 SC TR SLP218 =
2017-11-23 01:00 METAR CYOW 230100Z 31008KT 15SM SKC M06/M11 A3015 RMK SLP218 =
2017-11-23 00:00 METAR CYOW 230000Z 30009KT 15SM FEW030 M05/M10 A3014 RMK SC1 SLP215 =
2017-11-22 23:00 METAR CYOW 222300Z 30011KT 15SM FEW035 M04/M10 A3013 RMK SC1 SC TR SLP210 =
2017-11-22 22:00 METAR CYOW 222200Z 32007KT 15SM FEW035 FEW052 M03/M09 A3010 RMK SC1SC1 SC TR
                 SLP202 =
2017-11-22 21:00 METAR CYOW 222100Z 31011G16KT 15SM FEW050 M02/M09 A3009 RMK SC1 SC TR SLP196 =
2017-11-22 20:00 METAR CYOW 222000Z 31011G17KT 15SM FEW052 M01/M08 A3007 RMK SC1 SLP189 =
2017-11-22 19:00 METAR CYOW 221900Z 32014KT 15SM SCT052 M01/M07 A3004 RMK SC3 SLP181 =
2017-11-22 18:00 METAR CYOW 221800Z 30013KT 15SM FEW020 BKN052 M01/M06 A3003 RMK SC1SC6 SLP178 =
2017-11-22 17:00 METAR CYOW 221700Z 30014KT 15SM BKN019 BKN051 M01/M05 A3003 RMK SC5SC2 SLP177 =
2017-11-22 16:00 METAR CYOW 221600Z 30014KT 15SM BKN020 BKN055 M01/M04 A3002 RMK SC5SC2 SLP172 =
2017-11-22 15:00 METAR CYOW 221500Z 31011G16KT 15SM SCT016 BKN054 00/M02 A3002 RMK SC4SC3 SLP173
                 =
2017-11-22 14:50 METAR CYOW 221450Z 31014KT 15SM SCT020 BKN056 00/M02 A3002 RMK SC3SC4 SLP171 =
2017-11-22 14:00 METAR CYOW 221400Z 30012KT 3SM -SN BKN023 OVC040 00/M01 A3001 RMK SC5SC3 SLP169
                 =
2017-11-22 13:44 METAR CYOW 221344Z 30010G15KT 3SM -SN BKN019 BKN030 01/M01 A3001 RMK SC6SC1 VISB
                 E 10 SLP167 =
2017-11-22 13:00 METAR CYOW 221300Z 27007KT 15SM FEW030 BKN052 BKN080 00/M00 A2998 RMK SC1SC5AC1
                 SLP158 =
2017-11-22 12:00 METAR CYOW 221200Z 21005KT 6SM BR SCT040 OVC062 00/M00 A2996 RMK SC3SC5 SLP150 =
2017-11-22 11:00 METAR CYOW 221100Z 21005KT 4SM BR FEW001 OVC040 00/M00 A2993 RMK SF1SC8 SF TR
                 VIS NW 15 SLP140 =
2017-11-22 10:00 METAR CYOW 221000Z 19003KT 4SM BR OVC077 00/M00 A2990 RMK AC8 VIS NW 15 SLP130 =
2017-11-22 09:50 METAR CYOW 220950Z 21003KT 4SM BR FEW005 OVC036 00/M00 A2990 RMK SC1SC7 VIS NW
                 15 SLP130 =
2017-11-22 09:18 METAR CYOW 220918Z 23003KT 4SM -SN BR FEW004 OVC009 00/M00 A2989 RMK SF2SC6
                 SLP128 =
2017-11-22 09:00 METAR CYOW 220900Z 27003KT 5SM -SN OVC004 00/M00 A2989 RMK SF8 SLP126 =
2017-11-22 08:49 METAR CYOW 220849Z 29003KT 4SM -SN OVC005 01/M00 A2989 RMK SF8 CIG VRB 3-7
                 SLP126 =
2017-11-22 08:16 METAR CYOW 220816Z 28004KT 4SM -SN FEW004 VV013 01/00 A2989 RMK SF2SN6 SLP127 =
2017-11-22 08:00 METAR CYOW 220800Z 29005KT 5SM -SN VV012 01/00 A2989 RMK SN8 SLP129 =
2017-11-22 07:39 METAR CYOW 220739Z 30007KT 5SM -SN VV013 01/00 A2988 RMK SN8 SLP125 =

Support USWX by starting your Amazon purchase here.